sensor_id;sensor_type;location;lat;lon;timestamp;pressure;altitude;pressure_sealevel;temperature;humidity
50484;BME280;36409;52.168;20.878;2023-04-10T00:02:19;101291.49;;;5.90;70.81
50484;BME280;36409;52.168;20.878;2023-04-10T00:04:49;101294.02;;;5.86;70.90
50484;BME280;36409;52.168;20.878;2023-04-10T00:07:18;101302.53;;;5.81;70.78
50484;BME280;36409;52.168;20.878;2023-04-10T00:09:47;101290.26;;;5.72;70.68
50484;BME280;36409;52.168;20.878;2023-04-10T00:12:18;101291.90;;;5.67;70.79
50484;BME280;36409;52.168;20.878;2023-04-10T00:14:49;101295.25;;;5.63;70.62
50484;BME280;36409;52.168;20.878;2023-04-10T00:17:18;101293.48;;;5.60;70.86
50484;BME280;36409;52.168;20.878;2023-04-10T00:19:47;101297.73;;;5.56;70.92
50484;BME280;36409;52.168;20.878;2023-04-10T00:22:19;101300.25;;;5.53;71.06
50484;BME280;36409;52.168;20.878;2023-04-10T00:24:47;101301.91;;;5.50;70.68
50484;BME280;36409;52.168;20.878;2023-04-10T00:27:16;101300.08;;;5.46;70.71
50484;BME280;36409;52.168;20.878;2023-04-10T00:29:46;101299.22;;;5.45;71.25
50484;BME280;36409;52.168;20.878;2023-04-10T00:32:15;101302.59;;;5.43;70.67
50484;BME280;36409;52.168;20.878;2023-04-10T00:34:43;101299.95;;;5.39;71.32
50484;BME280;36409;52.168;20.878;2023-04-10T00:37:12;101305.08;;;5.38;71.00
50484;BME280;36409;52.168;20.878;2023-04-10T00:39:41;101296.40;;;5.36;70.76
50484;BME280;36409;52.168;20.878;2023-04-10T00:42:22;101297.22;;;5.33;71.15
50484;BME280;36409;52.168;20.878;2023-04-10T00:44:51;101289.42;;;5.32;71.04
50484;BME280;36409;52.168;20.878;2023-04-10T00:47:24;101293.69;;;5.30;71.43
50484;BME280;36409;52.168;20.878;2023-04-10T00:49:53;101297.03;;;5.25;71.24
50484;BME280;36409;52.168;20.878;2023-04-10T00:52:26;101300.44;;;5.23;71.33
50484;BME280;36409;52.168;20.878;2023-04-10T00:54:55;101296.94;;;5.21;71.21
50484;BME280;36409;52.168;20.878;2023-04-10T00:57:25;101309.05;;;5.22;71.33
50484;BME280;36409;52.168;20.878;2023-04-10T00:59:56;101302.95;;;5.20;71.73
50484;BME280;36409;52.168;20.878;2023-04-10T01:02:25;101313.26;;;5.17;71.00
50484;BME280;36409;52.168;20.878;2023-04-10T01:04:54;101311.45;;;5.14;71.14
50484;BME280;36409;52.168;20.878;2023-04-10T01:07:34;101317.41;;;5.10;71.64
50484;BME280;36409;52.168;20.878;2023-04-10T01:10:14;101307.84;;;5.07;71.45
50484;BME280;36409;52.168;20.878;2023-04-10T01:12:54;101316.47;;;5.06;71.79
50484;BME280;36409;52.168;20.878;2023-04-10T01:15:31;101315.66;;;5.09;71.66
50484;BME280;36409;52.168;20.878;2023-04-10T01:18:12;101313.08;;;5.09;71.54
50484;BME280;36409;52.168;20.878;2023-04-10T01:20:44;101304.47;;;5.10;71.41
50484;BME280;36409;52.168;20.878;2023-04-10T01:23:42;101308.73;;;5.08;71.52
50484;BME280;36409;52.168;20.878;2023-04-10T01:26:28;101311.16;;;5.02;71.39
50484;BME280;36409;52.168;20.878;2023-04-10T01:29:01;101310.17;;;4.95;72.05
50484;BME280;36409;52.168;20.878;2023-04-10T01:31:38;101309.98;;;4.87;72.04
50484;BME280;36409;52.168;20.878;2023-04-10T01:34:16;101303.86;;;4.84;71.92
50484;BME280;36409;52.168;20.878;2023-04-10T01:36:50;101302.86;;;4.78;71.78
50484;BME280;36409;52.168;20.878;2023-04-10T01:39:23;101295.81;;;4.73;71.99
50484;BME280;36409;52.168;20.878;2023-04-10T01:41:56;101299.16;;;4.69;71.58
50484;BME280;36409;52.168;20.878;2023-04-10T01:44:41;101303.36;;;4.63;71.37
50484;BME280;36409;52.168;20.878;2023-04-10T01:47:15;101304.08;;;4.58;72.18
50484;BME280;36409;52.168;20.878;2023-04-10T01:49:46;101294.39;;;4.51;71.61
50484;BME280;36409;52.168;20.878;2023-04-10T01:52:17;101299.53;;;4.49;71.95
50484;BME280;36409;52.168;20.878;2023-04-10T01:54:49;101298.67;;;4.48;71.81
50484;BME280;36409;52.168;20.878;2023-04-10T01:57:26;101297.78;;;4.48;72.59
50484;BME280;36409;52.168;20.878;2023-04-10T01:59:59;101300.34;;;4.46;71.69
50484;BME280;36409;52.168;20.878;2023-04-10T02:02:31;101303.67;;;4.42;71.97
50484;BME280;36409;52.168;20.878;2023-04-10T02:05:08;101305.30;;;4.39;72.38
50484;BME280;36409;52.168;20.878;2023-04-10T02:07:45;101308.70;;;4.36;72.07
50484;BME280;36409;52.168;20.878;2023-04-10T02:10:23;101302.52;;;4.31;72.23
50484;BME280;36409;52.168;20.878;2023-04-10T02:12:57;101304.95;;;4.25;71.51
50484;BME280;36409;52.168;20.878;2023-04-10T02:15:31;101296.16;;;4.18;71.56
50484;BME280;36409;52.168;20.878;2023-04-10T02:18:02;101296.06;;;4.15;72.13
50484;BME280;36409;52.168;20.878;2023-04-10T02:20:38;101305.45;;;4.11;72.23
50484;BME280;36409;52.168;20.878;2023-04-10T02:23:08;101312.27;;;4.09;72.52
50484;BME280;36409;52.168;20.878;2023-04-10T02:25:38;101303.59;;;4.07;72.75
50484;BME280;36409;52.168;20.878;2023-04-10T02:28:09;101310.49;;;4.07;72.04
50484;BME280;36409;52.168;20.878;2023-04-10T02:30:44;101308.70;;;4.04;71.84
50484;BME280;36409;52.168;20.878;2023-04-10T02:33:14;101319.81;;;4.01;72.74
50484;BME280;36409;52.168;20.878;2023-04-10T02:35:43;101314.64;;;4.01;72.08
50484;BME280;36409;52.168;20.878;2023-04-10T02:38:14;101312.03;;;4.00;72.29
50484;BME280;36409;52.168;20.878;2023-04-10T02:40:53;101317.20;;;4.00;72.85
50484;BME280;36409;52.168;20.878;2023-04-10T02:43:25;101312.03;;;4.00;72.20
50484;BME280;36409;52.168;20.878;2023-04-10T02:45:54;101313.78;;;4.01;73.10
50484;BME280;36409;52.168;20.878;2023-04-10T02:48:27;101312.03;;;4.00;73.12
50484;BME280;36409;52.168;20.878;2023-04-10T02:50:59;101311.20;;;4.01;72.89
50484;BME280;36409;52.168;20.878;2023-04-10T02:53:29;101308.58;;;3.99;73.04
50484;BME280;36409;52.168;20.878;2023-04-10T02:56:00;101306.86;;;4.00;72.97
50484;BME280;36409;52.168;20.878;2023-04-10T02:58:30;101305.11;;;3.99;73.21
50484;BME280;36409;52.168;20.878;2023-04-10T03:00:59;101306.83;;;3.98;72.54
50484;BME280;36409;52.168;20.878;2023-04-10T03:03:46;101311.94;;;3.97;72.73
50484;BME280;36409;52.168;20.878;2023-04-10T03:06:21;101306.55;;;3.89;72.29
50484;BME280;36409;52.168;20.878;2023-04-10T03:08:53;101311.58;;;3.84;73.21
50484;BME280;36409;52.168;20.878;2023-04-10T03:11:22;101315.86;;;3.82;73.19
50484;BME280;36409;52.168;20.878;2023-04-10T03:13:53;101303.77;;;3.81;72.37
50484;BME280;36409;52.168;20.878;2023-04-10T03:16:23;101311.52;;;3.81;73.35
50484;BME280;36409;52.168;20.878;2023-04-10T03:18:52;101318.28;;;3.78;73.30
50484;BME280;36409;52.168;20.878;2023-04-10T03:21:21;101309.64;;;3.76;73.12
50484;BME280;36409;52.168;20.878;2023-04-10T03:23:50;101306.95;;;3.73;73.31
50484;BME280;36409;52.168;20.878;2023-04-10T03:26:27;101315.50;;;3.70;73.08
50484;BME280;36409;52.168;20.878;2023-04-10T03:28:56;101300.73;;;3.66;72.69
50484;BME280;36409;52.168;20.878;2023-04-10T03:31:25;101304.14;;;3.65;73.31
50484;BME280;36409;52.168;20.878;2023-04-10T03:33:57;101303.28;;;3.64;72.98
50484;BME280;36409;52.168;20.878;2023-04-10T03:36:26;101306.73;;;3.65;73.25
50484;BME280;36409;52.168;20.878;2023-04-10T03:38:55;101306.73;;;3.65;72.52
50484;BME280;36409;52.168;20.878;2023-04-10T03:41:24;101300.57;;;3.60;72.44
50484;BME280;36409;52.168;20.878;2023-04-10T03:43:58;101306.46;;;3.55;73.23
50484;BME280;36409;52.168;20.878;2023-04-10T03:46:52;101310.59;;;3.50;73.13
50484;BME280;36409;52.168;20.878;2023-04-10T03:49:21;101307.95;;;3.47;73.22
50484;BME280;36409;52.168;20.878;2023-04-10T03:51:55;101304.47;;;3.47;72.57
50484;BME280;36409;52.168;20.878;2023-04-10T03:54:26;101305.37;;;3.47;72.99
50484;BME280;36409;52.168;20.878;2023-04-10T03:56:55;101308.84;;;3.49;72.81
50484;BME280;36409;52.168;20.878;2023-04-10T03:59:24;101310.59;;;3.50;73.72
50484;BME280;36409;52.168;20.878;2023-04-10T04:02:07;101307.25;;;3.53;72.93
50484;BME280;36409;52.168;20.878;2023-04-10T04:04:38;101311.63;;;3.55;73.82
50484;BME280;36409;52.168;20.878;2023-04-10T04:07:34;101320.23;;;3.56;72.96
50484;BME280;36409;52.168;20.878;2023-04-10T04:10:35;101321.13;;;3.57;73.53
50484;BME280;36409;52.168;20.878;2023-04-10T04:13:24;101321.23;;;3.60;73.52
50484;BME280;36409;52.168;20.878;2023-04-10T04:16:08;101319.61;;;3.63;73.75
50484;BME280;36409;52.168;20.878;2023-04-10T04:18:45;101324.91;;;3.68;73.47
50484;BME280;36409;52.168;20.878;2023-04-10T04:21:39;101331.95;;;3.74;73.72
50484;BME280;36409;52.168;20.878;2023-04-10T04:24:25;101332.91;;;3.77;73.17
50484;BME280;36409;52.168;20.878;2023-04-10T04:27:21;101341.69;;;3.82;73.23
50484;BME280;36409;52.168;20.878;2023-04-10T04:30:13;101343.64;;;3.91;72.98
50484;BME280;36409;52.168;20.878;2023-04-10T04:33:04;101341.38;;;4.02;73.92
50484;BME280;36409;52.168;20.878;2023-04-10T04:36:21;101339.97;;;4.13;73.70
50484;BME280;36409;52.168;20.878;2023-04-10T04:39:13;101348.83;;;4.23;73.95
50484;BME280;36409;52.168;20.878;2023-04-10T04:42:09;101355.13;;;4.33;73.60
50484;BME280;36409;52.168;20.878;2023-04-10T04:44:40;101352.88;;;4.45;73.07
50484;BME280;36409;52.168;20.878;2023-04-10T04:47:30;101354.05;;;4.57;73.33
50484;BME280;36409;52.168;20.878;2023-04-10T04:50:23;101354.30;;;4.68;73.81
50484;BME280;36409;52.168;20.878;2023-04-10T04:53:13;101357.27;;;4.82;73.75
50484;BME280;36409;52.168;20.878;2023-04-10T04:56:07;101354.98;;;4.94;73.39
50484;BME280;36409;52.168;20.878;2023-04-10T04:58:56;101356.98;;;5.06;73.62
50484;BME280;36409;52.168;20.878;2023-04-10T05:01:42;101358.13;;;5.17;73.00
50484;BME280;36409;52.168;20.878;2023-04-10T05:04:53;101356.73;;;5.32;73.33
50484;BME280;36409;52.168;20.878;2023-04-10T05:07:42;101358.87;;;5.50;73.12
50484;BME280;36409;52.168;20.878;2023-04-10T05:10:23;101368.78;;;5.68;73.63
50484;BME280;36409;52.168;20.878;2023-04-10T05:13:11;101363.16;;;5.89;73.60
50484;BME280;36409;52.168;20.878;2023-04-10T05:15:50;101369.66;;;6.10;73.37
50484;BME280;36409;52.168;20.878;2023-04-10T05:18:58;101366.86;;;6.43;73.29
50484;BME280;36409;52.168;20.878;2023-04-10T05:21:44;101363.19;;;6.79;73.17
50484;BME280;36409;52.168;20.878;2023-04-10T05:24:43;101367.05;;;7.03;72.85
50484;BME280;36409;52.168;20.878;2023-04-10T05:27:27;101355.25;;;7.24;72.73
50484;BME280;36409;52.168;20.878;2023-04-10T05:30:16;101362.57;;;7.51;72.98
50484;BME280;36409;52.168;20.878;2023-04-10T05:33:04;101361.18;;;7.78;72.83
50484;BME280;36409;52.168;20.878;2023-04-10T05:36:09;101363.15;;;7.96;73.00
50484;BME280;36409;52.168;20.878;2023-04-10T05:39:00;101360.98;;;8.32;72.98
50484;BME280;36409;52.168;20.878;2023-04-10T05:41:52;101358.98;;;8.92;73.18
50484;BME280;36409;52.168;20.878;2023-04-10T05:44:21;101361.10;;;9.46;73.19
50484;BME280;36409;52.168;20.878;2023-04-10T05:47:03;101364.14;;;10.45;71.64
50484;BME280;36409;52.168;20.878;2023-04-10T05:49:54;101362.46;;;10.95;70.91
50484;BME280;36409;52.168;20.878;2023-04-10T05:52:35;101358.13;;;10.96;71.77
50484;BME280;36409;52.168;20.878;2023-04-10T05:55:40;101367.67;;;10.74;71.37
50484;BME280;36409;52.168;20.878;2023-04-10T05:58:28;101365.92;;;10.53;70.92
50484;BME280;36409;52.168;20.878;2023-04-10T06:01:20;101370.19;;;10.33;71.06
50484;BME280;36409;52.168;20.878;2023-04-10T06:03:54;101366.59;;;10.02;70.94
50484;BME280;36409;52.168;20.878;2023-04-10T06:06:25;101368.27;;;9.84;71.57
50484;BME280;36409;52.168;20.878;2023-04-10T06:08:54;101385.59;;;9.73;70.90
50484;BME280;36409;52.168;20.878;2023-04-10T06:11:23;101379.45;;;9.62;70.98
50484;BME280;36409;52.168;20.878;2023-04-10T06:13:57;101383.72;;;9.52;71.40
50484;BME280;36409;52.168;20.878;2023-04-10T06:16:38;101381.12;;;9.52;71.57
50484;BME280;36409;52.168;20.878;2023-04-10T06:19:18;101380.28;;;9.56;72.18
50484;BME280;36409;52.168;20.878;2023-04-10T06:21:47;101382.05;;;9.65;72.27
50484;BME280;36409;52.168;20.878;2023-04-10T06:24:18;101391.03;;;10.26;71.44
50484;BME280;36409;52.168;20.878;2023-04-10T06:26:48;101380.66;;;11.74;70.83
50484;BME280;36409;52.168;20.878;2023-04-10T06:29:17;101372.11;;;13.03;69.16
50484;BME280;36409;52.168;20.878;2023-04-10T06:31:47;101364.40;;;13.77;69.55
50484;BME280;36409;52.168;20.878;2023-04-10T06:34:25;101362.13;;;15.32;68.28
50484;BME280;36409;52.168;20.878;2023-04-10T06:37:02;101365.19;;;16.79;68.19
50484;BME280;36409;52.168;20.878;2023-04-10T06:39:37;101362.68;;;18.09;66.38
50484;BME280;36409;52.168;20.878;2023-04-10T06:42:07;101368.13;;;18.61;65.66
50484;BME280;36409;52.168;20.878;2023-04-10T06:44:48;101366.16;;;18.67;65.45
50484;BME280;36409;52.168;20.878;2023-04-10T06:47:32;101367.72;;;19.52;64.14
50484;BME280;36409;52.168;20.878;2023-04-10T06:50:07;101361.09;;;20.13;63.37
50484;BME280;36409;52.168;20.878;2023-04-10T06:52:37;101363.34;;;21.11;61.62
50484;BME280;36409;52.168;20.878;2023-04-10T06:55:08;101365.28;;;22.27;60.71
50484;BME280;36409;52.168;20.878;2023-04-10T06:57:44;101359.39;;;23.47;59.58
50484;BME280;36409;52.168;20.878;2023-04-10T07:00:18;101364.07;;;24.25;58.42
50484;BME280;36409;52.168;20.878;2023-04-10T07:02:48;101364.43;;;25.11;57.41
50484;BME280;36409;52.168;20.878;2023-04-10T07:05:19;101364.11;;;25.90;56.54
50484;BME280;36409;52.168;20.878;2023-04-10T07:07:54;101355.55;;;25.70;55.47
50484;BME280;36409;52.168;20.878;2023-04-10T07:10:28;101363.84;;;25.51;55.37
50484;BME280;36409;52.168;20.878;2023-04-10T07:12:59;101359.25;;;25.39;55.62
50484;BME280;36409;52.168;20.878;2023-04-10T07:15:31;101364.95;;;25.33;54.44
50484;BME280;36409;52.168;20.878;2023-04-10T07:18:00;101375.53;;;25.20;54.87
50484;BME280;36409;52.168;20.878;2023-04-10T07:20:30;101370.10;;;24.91;54.16
50484;BME280;36409;52.168;20.878;2023-04-10T07:22:59;101367.48;;;23.95;54.56
50484;BME280;36409;52.168;20.878;2023-04-10T07:25:28;101372.62;;;22.41;54.83
50484;BME280;36409;52.168;20.878;2023-04-10T07:28:00;101372.44;;;21.06;54.90
50484;BME280;36409;52.168;20.878;2023-04-10T07:30:29;101374.56;;;20.07;55.95
50484;BME280;36409;52.168;20.878;2023-04-10T07:33:02;101372.05;;;19.29;56.65
50484;BME280;36409;52.168;20.878;2023-04-10T07:35:33;101375.52;;;18.78;57.82
50484;BME280;36409;52.168;20.878;2023-04-10T07:38:05;101378.92;;;18.81;57.45
50484;BME280;36409;52.168;20.878;2023-04-10T07:40:34;101371.14;;;19.80;56.25
50484;BME280;36409;52.168;20.878;2023-04-10T07:43:04;101366.95;;;20.44;55.39
50484;BME280;36409;52.168;20.878;2023-04-10T07:45:34;101366.16;;;20.64;55.43
50484;BME280;36409;52.168;20.878;2023-04-10T07:48:07;101367.21;;;20.37;55.92
50484;BME280;36409;52.168;20.878;2023-04-10T07:50:41;101361.85;;;19.93;55.74
50484;BME280;36409;52.168;20.878;2023-04-10T07:53:11;101373.55;;;20.33;55.04
50484;BME280;36409;52.168;20.878;2023-04-10T07:55:44;101366.68;;;21.17;54.61
50484;BME280;36409;52.168;20.878;2023-04-10T07:58:18;101366.13;;;21.70;53.14
50484;BME280;36409;52.168;20.878;2023-04-10T08:00:47;101371.46;;;22.47;51.52
50484;BME280;36409;52.168;20.878;2023-04-10T08:03:21;101361.67;;;22.47;51.24
50484;BME280;36409;52.168;20.878;2023-04-10T08:05:51;101364.41;;;23.00;49.99
50484;BME280;36409;52.168;20.878;2023-04-10T08:08:21;101361.17;;;22.76;50.06
50484;BME280;36409;52.168;20.878;2023-04-10T08:10:51;101367.92;;;22.46;50.38
50484;BME280;36409;52.168;20.878;2023-04-10T08:13:35;101367.66;;;22.70;50.09
50484;BME280;36409;52.168;20.878;2023-04-10T08:16:09;101361.95;;;22.60;50.08
50484;BME280;36409;52.168;20.878;2023-04-10T08:18:49;101361.20;;;22.93;49.61
50484;BME280;36409;52.168;20.878;2023-04-10T08:21:20;101350.94;;;22.86;49.25
50484;BME280;36409;52.168;20.878;2023-04-10T08:23:51;101357.38;;;23.34;49.43
50484;BME280;36409;52.168;20.878;2023-04-10T08:26:25;101348.69;;;24.30;48.53
50484;BME280;36409;52.168;20.878;2023-04-10T08:28:59;101353.08;;;25.08;46.23
50484;BME280;36409;52.168;20.878;2023-04-10T08:31:34;101355.68;;;25.09;45.79
50484;BME280;36409;52.168;20.878;2023-04-10T08:34:15;101353.31;;;24.89;45.53
50484;BME280;36409;52.168;20.878;2023-04-10T08:36:44;101357.30;;;24.81;45.84
50484;BME280;36409;52.168;20.878;2023-04-10T08:39:16;101351.33;;;24.46;46.62
50484;BME280;36409;52.168;20.878;2023-04-10T08:41:46;101347.91;;;24.28;47.00
50484;BME280;36409;52.168;20.878;2023-04-10T08:44:20;101353.31;;;24.10;47.70
50484;BME280;36409;52.168;20.878;2023-04-10T08:46:52;101352.69;;;23.89;48.02
50484;BME280;36409;52.168;20.878;2023-04-10T08:49:30;101349.43;;;23.50;47.90
50484;BME280;36409;52.168;20.878;2023-04-10T08:52:01;101347.12;;;23.26;48.82
50484;BME280;36409;52.168;20.878;2023-04-10T08:54:38;101353.98;;;22.78;48.55
50484;BME280;36409;52.168;20.878;2023-04-10T08:57:13;101356.77;;;22.38;49.29
50484;BME280;36409;52.168;20.878;2023-04-10T08:59:45;101352.87;;;21.89;49.62
50484;BME280;36409;52.168;20.878;2023-04-10T09:02:15;101348.59;;;21.45;49.40
50484;BME280;36409;52.168;20.878;2023-04-10T09:04:47;101350.28;;;21.07;50.26
50484;BME280;36409;52.168;20.878;2023-04-10T09:07:18;101350.72;;;20.96;50.27
50484;BME280;36409;52.168;20.878;2023-04-10T09:09:51;101349.86;;;20.73;50.84
50484;BME280;36409;52.168;20.878;2023-04-10T09:12:20;101342.25;;;20.65;51.29
50484;BME280;36409;52.168;20.878;2023-04-10T09:14:51;101340.94;;;20.53;51.02
50484;BME280;36409;52.168;20.878;2023-04-10T09:17:22;101339.48;;;20.46;50.85
50484;BME280;36409;52.168;20.878;2023-04-10T09:19:56;101338.31;;;20.31;50.89
50484;BME280;36409;52.168;20.878;2023-04-10T09:22:31;101327.33;;;20.41;51.97
50484;BME280;36409;52.168;20.878;2023-04-10T09:25:04;101337.30;;;20.56;52.05
50484;BME280;36409;52.168;20.878;2023-04-10T09:27:35;101335.06;;;20.67;51.98
50484;BME280;36409;52.168;20.878;2023-04-10T09:30:09;101332.69;;;20.61;51.64
50484;BME280;36409;52.168;20.878;2023-04-10T09:32:41;101324.42;;;20.47;51.24
50484;BME280;36409;52.168;20.878;2023-04-10T09:35:12;101323.57;;;20.46;51.33
50484;BME280;36409;52.168;20.878;2023-04-10T09:37:44;101328.37;;;20.59;51.36
50484;BME280;36409;52.168;20.878;2023-04-10T09:40:22;101323.92;;;20.15;51.35
50484;BME280;36409;52.168;20.878;2023-04-10T09:42:53;101322.45;;;20.08;51.03
50484;BME280;36409;52.168;20.878;2023-04-10T09:45:23;101308.49;;;19.79;51.47
50484;BME280;36409;52.168;20.878;2023-04-10T09:48:04;101311.89;;;20.06;51.48
50484;BME280;36409;52.168;20.878;2023-04-10T09:50:39;101307.66;;;20.46;51.86
50484;BME280;36409;52.168;20.878;2023-04-10T09:53:11;101297.59;;;20.55;51.55
50484;BME280;36409;52.168;20.878;2023-04-10T09:55:41;101296.28;;;20.65;51.62
50484;BME280;36409;52.168;20.878;2023-04-10T09:58:13;101298.81;;;20.68;50.80
50484;BME280;36409;52.168;20.878;2023-04-10T10:00:44;101298.37;;;20.79;50.88
50484;BME280;36409;52.168;20.878;2023-04-10T10:03:16;101289.85;;;20.93;50.82
50484;BME280;36409;52.168;20.878;2023-04-10T10:05:50;101292.74;;;21.07;51.32
50484;BME280;36409;52.168;20.878;2023-04-10T10:08:20;101287.19;;;21.13;51.25
50484;BME280;36409;52.168;20.878;2023-04-10T10:10:53;101288.64;;;21.00;50.33
50484;BME280;36409;52.168;20.878;2023-04-10T10:13:32;101278.69;;;20.85;50.46
50484;BME280;36409;52.168;20.878;2023-04-10T10:16:08;101280.41;;;20.86;50.46
50484;BME280;36409;52.168;20.878;2023-04-10T10:18:56;101280.91;;;20.73;50.46
50484;BME280;36409;52.168;20.878;2023-04-10T10:24:12;101270.31;;;19.84;50.34
50484;BME280;36409;52.168;20.878;2023-04-10T10:26:45;101274.98;;;20.01;50.76
50484;BME280;36409;52.168;20.878;2023-04-10T10:29:20;101263.05;;;20.13;50.43
50484;BME280;36409;52.168;20.878;2023-04-10T10:31:53;101264.27;;;20.04;50.38
50484;BME280;36409;52.168;20.878;2023-04-10T10:34:26;101262.84;;;19.72;50.10
50484;BME280;36409;52.168;20.878;2023-04-10T10:36:59;101257.72;;;19.67;50.33
50484;BME280;36409;52.168;20.878;2023-04-10T10:39:37;101250.66;;;19.92;49.97
50484;BME280;36409;52.168;20.878;2023-04-10T10:42:17;101251.27;;;20.20;50.42
50484;BME280;36409;52.168;20.878;2023-04-10T10:45:00;101248.12;;;20.33;50.06
50484;BME280;36409;52.168;20.878;2023-04-10T10:47:42;101252.72;;;20.50;50.00
50484;BME280;36409;52.168;20.878;2023-04-10T10:50:16;101249.59;;;20.61;49.96
50484;BME280;36409;52.168;20.878;2023-04-10T10:52:46;101247.09;;;20.58;49.89
50484;BME280;36409;52.168;20.878;2023-04-10T10:55:32;101244.16;;;20.86;49.77
50484;BME280;36409;52.168;20.878;2023-04-10T10:58:08;101245.52;;;21.16;49.30
50484;BME280;36409;52.168;20.878;2023-04-10T11:01:05;101239.73;;;21.45;49.08
50484;BME280;36409;52.168;20.878;2023-04-10T11:03:45;101241.30;;;21.31;48.33
50484;BME280;36409;52.168;20.878;2023-04-10T11:06:19;101241.89;;;20.97;48.36
50484;BME280;36409;52.168;20.878;2023-04-10T11:08:52;101237.97;;;20.86;48.41
50484;BME280;36409;52.168;20.878;2023-04-10T11:11:26;101231.42;;;20.51;48.42
50484;BME280;36409;52.168;20.878;2023-04-10T11:14:15;101232.55;;;20.03;48.27
50484;BME280;36409;52.168;20.878;2023-04-10T11:16:52;101230.39;;;19.67;48.12
50484;BME280;36409;52.168;20.878;2023-04-10T11:19:21;101226.42;;;19.55;48.44
50484;BME280;36409;52.168;20.878;2023-04-10T11:22:04;101225.94;;;19.91;49.29
50484;BME280;36409;52.168;20.878;2023-04-10T11:24:57;101205.41;;;20.18;48.77
50484;BME280;36409;52.168;20.878;2023-04-10T11:27:44;101209.81;;;20.40;48.73
50484;BME280;36409;52.168;20.878;2023-04-10T11:30:35;101205.52;;;20.58;49.13
50484;BME280;36409;52.168;20.878;2023-04-10T11:33:06;101202.33;;;20.29;48.22
50484;BME280;36409;52.168;20.878;2023-04-10T11:35:35;101212.39;;;19.99;48.18
50484;BME280;36409;52.168;20.878;2023-04-10T11:38:14;101203.00;;;19.68;48.30
50484;BME280;36409;52.168;20.878;2023-04-10T11:40:58;101208.53;;;19.38;48.34
50484;BME280;36409;52.168;20.878;2023-04-10T11:43:30;101200.02;;;19.06;47.86
50484;BME280;36409;52.168;20.878;2023-04-10T11:46:03;101196.45;;;18.81;48.36
50484;BME280;36409;52.168;20.878;2023-04-10T11:48:35;101196.46;;;18.56;48.01
50484;BME280;36409;52.168;20.878;2023-04-10T11:51:10;101187.22;;;18.43;48.75
50484;BME280;36409;52.168;20.878;2023-04-10T11:53:45;101186.37;;;18.67;48.87
50484;BME280;36409;52.168;20.878;2023-04-10T11:56:24;101179.20;;;18.96;49.17
50484;BME280;36409;52.168;20.878;2023-04-10T11:58:53;101169.55;;;19.19;49.13
50484;BME280;36409;52.168;20.878;2023-04-10T12:01:23;101165.27;;;19.39;49.25
50484;BME280;36409;52.168;20.878;2023-04-10T12:03:52;101166.41;;;19.55;49.19
50484;BME280;36409;52.168;20.878;2023-04-10T12:06:23;101162.21;;;19.72;49.04
50484;BME280;36409;52.168;20.878;2023-04-10T12:08:53;101162.77;;;19.58;48.45
50484;BME280;36409;52.168;20.878;2023-04-10T12:11:24;101150.75;;;19.49;48.72
50484;BME280;36409;52.168;20.878;2023-04-10T12:13:57;101147.88;;;19.55;48.21
50484;BME280;36409;52.168;20.878;2023-04-10T12:16:27;101144.31;;;19.56;48.79
50484;BME280;36409;52.168;20.878;2023-04-10T12:18:57;101150.45;;;19.57;47.99
50484;BME280;36409;52.168;20.878;2023-04-10T12:21:26;101145.37;;;19.28;47.58
50484;BME280;36409;52.168;20.878;2023-04-10T12:24:03;101139.45;;;18.98;47.67
50484;BME280;36409;52.168;20.878;2023-04-10T12:26:33;101133.33;;;18.72;47.58
50484;BME280;36409;52.168;20.878;2023-04-10T12:29:05;101127.59;;;18.59;47.44
50484;BME280;36409;52.168;20.878;2023-04-10T12:31:39;101127.73;;;18.56;47.33
50484;BME280;36409;52.168;20.878;2023-04-10T12:34:17;101131.70;;;18.68;47.52
50484;BME280;36409;52.168;20.878;2023-04-10T12:36:52;101119.05;;;18.76;48.12
50484;BME280;36409;52.168;20.878;2023-04-10T12:39:24;101110.04;;;18.82;48.17
50484;BME280;36409;52.168;20.878;2023-04-10T12:42:10;101110.49;;;18.95;48.53
50484;BME280;36409;52.168;20.878;2023-04-10T12:44:51;101103.19;;;19.02;48.37
50484;BME280;36409;52.168;20.878;2023-04-10T12:47:24;101108.59;;;18.98;48.18
50484;BME280;36409;52.168;20.878;2023-04-10T12:50:13;101099.84;;;18.96;47.63
50484;BME280;36409;52.168;20.878;2023-04-10T12:52:45;101104.64;;;18.85;47.63
50484;BME280;36409;52.168;20.878;2023-04-10T12:55:18;101103.44;;;18.70;47.64
50484;BME280;36409;52.168;20.878;2023-04-10T12:57:48;101101.16;;;18.59;48.14
50484;BME280;36409;52.168;20.878;2023-04-10T13:00:19;101093.23;;;18.59;47.82
50484;BME280;36409;52.168;20.878;2023-04-10T13:02:49;101098.22;;;18.68;47.98
50484;BME280;36409;52.168;20.878;2023-04-10T13:05:19;101094.59;;;18.71;47.85
50484;BME280;36409;52.168;20.878;2023-04-10T13:07:48;101089.06;;;18.77;47.58
50484;BME280;36409;52.168;20.878;2023-04-10T13:10:20;101081.83;;;18.82;47.67
50484;BME280;36409;52.168;20.878;2023-04-10T13:12:49;101071.25;;;18.82;47.04
50484;BME280;36409;52.168;20.878;2023-04-10T13:15:18;101065.86;;;18.86;47.14
50484;BME280;36409;52.168;20.878;2023-04-10T13:17:50;101071.56;;;18.98;47.21
50484;BME280;36409;52.168;20.878;2023-04-10T13:20:20;101071.45;;;19.02;46.95
50484;BME280;36409;52.168;20.878;2023-04-10T13:22:53;101069.17;;;18.91;47.26
50484;BME280;36409;52.168;20.878;2023-04-10T13:25:22;101071.60;;;18.73;46.76
50484;BME280;36409;52.168;20.878;2023-04-10T13:27:51;101069.98;;;18.69;46.84
50484;BME280;36409;52.168;20.878;2023-04-10T13:30:20;101066.87;;;18.58;47.10
50484;BME280;36409;52.168;20.878;2023-04-10T13:32:52;101064.30;;;18.56;47.25